sensor_id;sensor_type;location;lat;lon;timestamp;P1;durP1;ratioP1;P2;durP2;ratioP2
21860;SDS011;11095;48.066;8.540;2022-10-17T00:01:53;4.75;;;3.53;;
21860;SDS011;11095;48.066;8.540;2022-10-17T00:04:19;4.38;;;3.78;;
21860;SDS011;11095;48.066;8.540;2022-10-17T00:06:45;4.60;;;3.53;;
21860;SDS011;11095;48.066;8.540;2022-10-17T00:09:10;5.45;;;3.60;;
21860;SDS011;11095;48.066;8.540;2022-10-17T00:11:36;4.22;;;3.83;;
21860;SDS011;11095;48.066;8.540;2022-10-17T00:14:01;4.25;;;3.60;;
21860;SDS011;11095;48.066;8.540;2022-10-17T00:16:28;4.10;;;3.70;;
21860;SDS011;11095;48.066;8.540;2022-10-17T00:18:57;5.53;;;3.45;;
21860;SDS011;11095;48.066;8.540;2022-10-17T00:21:24;4.90;;;3.65;;
21860;SDS011;11095;48.066;8.540;2022-10-17T00:23:50;4.90;;;3.25;;
21860;SDS011;11095;48.066;8.540;2022-10-17T00:26:17;3.72;;;3.33;;
21860;SDS011;11095;48.066;8.540;2022-10-17T00:28:46;3.88;;;3.45;;
21860;SDS011;11095;48.066;8.540;2022-10-17T00:31:12;5.35;;;3.90;;
21860;SDS011;11095;48.066;8.540;2022-10-17T00:33:38;8.50;;;4.20;;
21860;SDS011;11095;48.066;8.540;2022-10-17T00:36:15;4.93;;;3.90;;
21860;SDS011;11095;48.066;8.540;2022-10-17T00:38:42;7.20;;;4.10;;
21860;SDS011;11095;48.066;8.540;2022-10-17T00:41:11;5.15;;;4.00;;
21860;SDS011;11095;48.066;8.540;2022-10-17T00:43:48;5.82;;;3.92;;
21860;SDS011;11095;48.066;8.540;2022-10-17T00:46:14;6.20;;;3.67;;
21860;SDS011;11095;48.066;8.540;2022-10-17T00:48:40;4.63;;;3.50;;
21860;SDS011;11095;48.066;8.540;2022-10-17T00:51:07;3.83;;;3.22;;
21860;SDS011;11095;48.066;8.540;2022-10-17T00:53:33;5.43;;;3.50;;
21860;SDS011;11095;48.066;8.540;2022-10-17T00:56:01;3.72;;;3.30;;
21860;SDS011;11095;48.066;8.540;2022-10-17T00:58:26;4.00;;;3.60;;
21860;SDS011;11095;48.066;8.540;2022-10-17T01:00:52;3.63;;;3.33;;
21860;SDS011;11095;48.066;8.540;2022-10-17T01:03:18;4.80;;;3.75;;
21860;SDS011;11095;48.066;8.540;2022-10-17T01:05:43;7.30;;;3.90;;
21860;SDS011;11095;48.066;8.540;2022-10-17T01:08:10;6.07;;;4.18;;
21860;SDS011;11095;48.066;8.540;2022-10-17T01:11:01;4.93;;;4.07;;
21860;SDS011;11095;48.066;8.540;2022-10-17T01:13:36;4.72;;;3.50;;
21860;SDS011;11095;48.066;8.540;2022-10-17T01:16:14;3.95;;;3.45;;
21860;SDS011;11095;48.066;8.540;2022-10-17T01:27:17;6.68;;;4.20;;
21860;SDS011;11095;48.066;8.540;2022-10-17T01:32:57;5.70;;;4.20;;
21860;SDS011;11095;48.066;8.540;2022-10-17T01:35:36;5.50;;;4.60;;
21860;SDS011;11095;48.066;8.540;2022-10-17T01:38:07;6.20;;;4.22;;
21860;SDS011;11095;48.066;8.540;2022-10-17T01:43:56;5.97;;;4.50;;
21860;SDS011;11095;48.066;8.540;2022-10-17T01:46:29;4.78;;;3.92;;
21860;SDS011;11095;48.066;8.540;2022-10-17T01:49:00;5.57;;;4.88;;
21860;SDS011;11095;48.066;8.540;2022-10-17T01:51:29;6.60;;;4.85;;
21860;SDS011;11095;48.066;8.540;2022-10-17T01:54:15;4.93;;;4.40;;
21860;SDS011;11095;48.066;8.540;2022-10-17T01:56:47;5.22;;;4.35;;
21860;SDS011;11095;48.066;8.540;2022-10-17T01:59:17;4.80;;;4.15;;
21860;SDS011;11095;48.066;8.540;2022-10-17T02:01:47;5.40;;;4.25;;
21860;SDS011;11095;48.066;8.540;2022-10-17T02:04:17;5.63;;;4.32;;
21860;SDS011;11095;48.066;8.540;2022-10-17T02:06:42;7.32;;;4.90;;
21860;SDS011;11095;48.066;8.540;2022-10-17T02:09:21;6.43;;;4.72;;
21860;SDS011;11095;48.066;8.540;2022-10-17T02:20:27;5.32;;;4.70;;
21860;SDS011;11095;48.066;8.540;2022-10-17T02:23:02;5.78;;;4.78;;
21860;SDS011;11095;48.066;8.540;2022-10-17T02:25:46;5.38;;;4.72;;
21860;SDS011;11095;48.066;8.540;2022-10-17T02:31:19;8.40;;;5.25;;
21860;SDS011;11095;48.066;8.540;2022-10-17T02:33:52;5.63;;;4.60;;
21860;SDS011;11095;48.066;8.540;2022-10-17T02:36:25;5.93;;;5.03;;
21860;SDS011;11095;48.066;8.540;2022-10-17T02:38:55;4.72;;;4.30;;
21860;SDS011;11095;48.066;8.540;2022-10-17T02:41:22;4.60;;;3.95;;
21860;SDS011;11095;48.066;8.540;2022-10-17T02:43:49;6.60;;;4.63;;
21860;SDS011;11095;48.066;8.540;2022-10-17T02:46:17;5.03;;;4.53;;
21860;SDS011;11095;48.066;8.540;2022-10-17T02:48:49;4.75;;;4.20;;
21860;SDS011;11095;48.066;8.540;2022-10-17T02:56:56;4.93;;;4.28;;
21860;SDS011;11095;48.066;8.540;2022-10-17T02:59:26;4.68;;;4.03;;
21860;SDS011;11095;48.066;8.540;2022-10-17T03:01:54;4.97;;;4.05;;
21860;SDS011;11095;48.066;8.540;2022-10-17T03:04:20;4.75;;;4.03;;
21860;SDS011;11095;48.066;8.540;2022-10-17T03:06:46;4.60;;;4.10;;
21860;SDS011;11095;48.066;8.540;2022-10-17T03:09:13;5.90;;;4.55;;
21860;SDS011;11095;48.066;8.540;2022-10-17T03:11:39;4.70;;;3.97;;
21860;SDS011;11095;48.066;8.540;2022-10-17T03:14:04;5.00;;;4.18;;
21860;SDS011;11095;48.066;8.540;2022-10-17T03:16:30;4.13;;;3.72;;
21860;SDS011;11095;48.066;8.540;2022-10-17T03:18:56;5.32;;;3.88;;
21860;SDS011;11095;48.066;8.540;2022-10-17T03:21:21;5.30;;;3.78;;
21860;SDS011;11095;48.066;8.540;2022-10-17T03:23:47;4.57;;;3.97;;
21860;SDS011;11095;48.066;8.540;2022-10-17T03:26:12;4.97;;;4.10;;
21860;SDS011;11095;48.066;8.540;2022-10-17T03:28:38;4.95;;;3.90;;
21860;SDS011;11095;48.066;8.540;2022-10-17T03:31:11;5.32;;;4.00;;
21860;SDS011;11095;48.066;8.540;2022-10-17T03:33:39;4.68;;;4.00;;
21860;SDS011;11095;48.066;8.540;2022-10-17T03:36:08;5.55;;;3.83;;
21860;SDS011;11095;48.066;8.540;2022-10-17T03:38:36;4.20;;;3.80;;
21860;SDS011;11095;48.066;8.540;2022-10-17T03:41:02;4.13;;;3.70;;
21860;SDS011;11095;48.066;8.540;2022-10-17T03:43:29;4.20;;;3.53;;
21860;SDS011;11095;48.066;8.540;2022-10-17T03:45:55;4.07;;;3.67;;
21860;SDS011;11095;48.066;8.540;2022-10-17T03:48:22;5.07;;;3.60;;
21860;SDS011;11095;48.066;8.540;2022-10-17T03:50:48;5.10;;;4.10;;
21860;SDS011;11095;48.066;8.540;2022-10-17T03:53:14;4.43;;;3.70;;
21860;SDS011;11095;48.066;8.540;2022-10-17T03:55:40;4.40;;;3.60;;
21860;SDS011;11095;48.066;8.540;2022-10-17T03:58:05;5.43;;;4.60;;
21860;SDS011;11095;48.066;8.540;2022-10-17T04:00:31;6.35;;;5.07;;
21860;SDS011;11095;48.066;8.540;2022-10-17T04:02:57;6.60;;;4.63;;
21860;SDS011;11095;48.066;8.540;2022-10-17T04:05:23;6.50;;;4.30;;
21860;SDS011;11095;48.066;8.540;2022-10-17T04:07:48;8.48;;;4.40;;
21860;SDS011;11095;48.066;8.540;2022-10-17T04:10:14;5.97;;;4.50;;
21860;SDS011;11095;48.066;8.540;2022-10-17T04:12:39;5.45;;;4.32;;
21860;SDS011;11095;48.066;8.540;2022-10-17T04:15:05;5.90;;;4.50;;
21860;SDS011;11095;48.066;8.540;2022-10-17T04:17:31;7.05;;;4.20;;
21860;SDS011;11095;48.066;8.540;2022-10-17T04:19:57;5.35;;;4.50;;
21860;SDS011;11095;48.066;8.540;2022-10-17T04:22:23;5.25;;;3.97;;
21860;SDS011;11095;48.066;8.540;2022-10-17T04:24:48;5.60;;;4.22;;
21860;SDS011;11095;48.066;8.540;2022-10-17T04:27:14;9.15;;;4.65;;
21860;SDS011;11095;48.066;8.540;2022-10-17T04:29:40;6.35;;;4.85;;
21860;SDS011;11095;48.066;8.540;2022-10-17T04:32:06;6.18;;;4.32;;
21860;SDS011;11095;48.066;8.540;2022-10-17T04:34:31;5.28;;;4.30;;
21860;SDS011;11095;48.066;8.540;2022-10-17T04:36:57;4.95;;;3.83;;
21860;SDS011;11095;48.066;8.540;2022-10-17T04:39:22;7.57;;;5.05;;
21860;SDS011;11095;48.066;8.540;2022-10-17T04:41:48;5.68;;;4.88;;
21860;SDS011;11095;48.066;8.540;2022-10-17T04:44:14;5.60;;;4.43;;
21860;SDS011;11095;48.066;8.540;2022-10-17T04:46:39;6.72;;;4.88;;
21860;SDS011;11095;48.066;8.540;2022-10-17T04:49:05;6.63;;;4.60;;
21860;SDS011;11095;48.066;8.540;2022-10-17T04:51:31;5.35;;;4.45;;
21860;SDS011;11095;48.066;8.540;2022-10-17T04:53:56;6.32;;;4.78;;
21860;SDS011;11095;48.066;8.540;2022-10-17T04:56:22;5.82;;;4.50;;
21860;SDS011;11095;48.066;8.540;2022-10-17T04:58:49;5.45;;;4.38;;
21860;SDS011;11095;48.066;8.540;2022-10-17T05:01:16;5.25;;;4.10;;
21860;SDS011;11095;48.066;8.540;2022-10-17T05:03:43;5.78;;;4.72;;
21860;SDS011;11095;48.066;8.540;2022-10-17T05:06:10;6.45;;;4.40;;
21860;SDS011;11095;48.066;8.540;2022-10-17T05:08:41;5.13;;;4.05;;
21860;SDS011;11095;48.066;8.540;2022-10-17T05:11:14;5.75;;;4.10;;
21860;SDS011;11095;48.066;8.540;2022-10-17T05:13:43;5.15;;;4.50;;
21860;SDS011;11095;48.066;8.540;2022-10-17T05:16:13;5.03;;;3.90;;
21860;SDS011;11095;48.066;8.540;2022-10-17T05:18:38;7.22;;;4.22;;
21860;SDS011;11095;48.066;8.540;2022-10-17T05:21:04;4.43;;;3.90;;
21860;SDS011;11095;48.066;8.540;2022-10-17T05:23:30;4.35;;;3.65;;
21860;SDS011;11095;48.066;8.540;2022-10-17T05:25:55;6.50;;;4.30;;
21860;SDS011;11095;48.066;8.540;2022-10-17T05:28:21;6.75;;;4.60;;
21860;SDS011;11095;48.066;8.540;2022-10-17T05:30:47;6.20;;;4.57;;
21860;SDS011;11095;48.066;8.540;2022-10-17T05:33:13;6.80;;;4.30;;
21860;SDS011;11095;48.066;8.540;2022-10-17T05:35:38;6.78;;;5.07;;
21860;SDS011;11095;48.066;8.540;2022-10-17T05:38:04;6.72;;;4.63;;
21860;SDS011;11095;48.066;8.540;2022-10-17T05:40:30;6.10;;;4.45;;
21860;SDS011;11095;48.066;8.540;2022-10-17T05:42:55;4.93;;;4.05;;
21860;SDS011;11095;48.066;8.540;2022-10-17T05:45:21;7.85;;;5.10;;
21860;SDS011;11095;48.066;8.540;2022-10-17T05:47:47;6.90;;;4.75;;
21860;SDS011;11095;48.066;8.540;2022-10-17T05:50:12;5.10;;;4.35;;
21860;SDS011;11095;48.066;8.540;2022-10-17T05:52:38;7.97;;;4.63;;
21860;SDS011;11095;48.066;8.540;2022-10-17T05:55:04;5.38;;;3.92;;
21860;SDS011;11095;48.066;8.540;2022-10-17T05:57:30;4.88;;;4.25;;
21860;SDS011;11095;48.066;8.540;2022-10-17T05:59:56;5.38;;;4.22;;
21860;SDS011;11095;48.066;8.540;2022-10-17T06:02:21;7.43;;;4.90;;
21860;SDS011;11095;48.066;8.540;2022-10-17T06:04:47;8.40;;;5.47;;
21860;SDS011;11095;48.066;8.540;2022-10-17T06:07:14;10.50;;;6.20;;
21860;SDS011;11095;48.066;8.540;2022-10-17T06:09:40;8.15;;;6.72;;
21860;SDS011;11095;48.066;8.540;2022-10-17T06:12:06;8.35;;;6.80;;
21860;SDS011;11095;48.066;8.540;2022-10-17T06:14:32;6.38;;;5.35;;
21860;SDS011;11095;48.066;8.540;2022-10-17T06:16:58;8.82;;;6.60;;
21860;SDS011;11095;48.066;8.540;2022-10-17T06:19:23;7.10;;;5.47;;
21860;SDS011;11095;48.066;8.540;2022-10-17T06:21:50;6.25;;;4.00;;
21860;SDS011;11095;48.066;8.540;2022-10-17T06:24:15;4.47;;;3.70;;
21860;SDS011;11095;48.066;8.540;2022-10-17T06:26:41;2.97;;;2.67;;
21860;SDS011;11095;48.066;8.540;2022-10-17T06:29:07;4.82;;;2.60;;
21860;SDS011;11095;48.066;8.540;2022-10-17T06:31:33;3.13;;;2.35;;
21860;SDS011;11095;48.066;8.540;2022-10-17T06:33:58;4.47;;;2.10;;
21860;SDS011;11095;48.066;8.540;2022-10-17T06:36:24;3.40;;;2.10;;
21860;SDS011;11095;48.066;8.540;2022-10-17T06:38:49;3.55;;;2.35;;
21860;SDS011;11095;48.066;8.540;2022-10-17T06:41:15;3.08;;;1.98;;
21860;SDS011;11095;48.066;8.540;2022-10-17T06:43:43;2.70;;;2.28;;
21860;SDS011;11095;48.066;8.540;2022-10-17T06:46:10;3.08;;;2.00;;
21860;SDS011;11095;48.066;8.540;2022-10-17T06:48:40;4.07;;;2.00;;
21860;SDS011;11095;48.066;8.540;2022-10-17T06:51:06;3.55;;;2.10;;
21860;SDS011;11095;48.066;8.540;2022-10-17T06:53:33;5.93;;;2.08;;
21860;SDS011;11095;48.066;8.540;2022-10-17T06:56:00;4.70;;;2.22;;
21860;SDS011;11095;48.066;8.540;2022-10-17T06:58:36;2.55;;;2.08;;
21860;SDS011;11095;48.066;8.540;2022-10-17T07:01:07;2.95;;;1.88;;
21860;SDS011;11095;48.066;8.540;2022-10-17T07:03:34;3.67;;;1.90;;
21860;SDS011;11095;48.066;8.540;2022-10-17T07:06:00;2.95;;;1.90;;
21860;SDS011;11095;48.066;8.540;2022-10-17T07:08:27;4.30;;;1.85;;
21860;SDS011;11095;48.066;8.540;2022-10-17T07:10:53;2.63;;;1.83;;
21860;SDS011;11095;48.066;8.540;2022-10-17T07:13:19;2.75;;;1.75;;
21860;SDS011;11095;48.066;8.540;2022-10-17T07:15:45;2.35;;;1.75;;
21860;SDS011;11095;48.066;8.540;2022-10-17T07:18:10;1.90;;;1.65;;
21860;SDS011;11095;48.066;8.540;2022-10-17T07:20:37;3.40;;;2.00;;
21860;SDS011;11095;48.066;8.540;2022-10-17T07:23:03;3.40;;;1.65;;
21860;SDS011;11095;48.066;8.540;2022-10-17T07:25:28;2.45;;;1.70;;
21860;SDS011;11095;48.066;8.540;2022-10-17T07:27:54;4.57;;;1.65;;
21860;SDS011;11095;48.066;8.540;2022-10-17T07:30:20;3.08;;;1.85;;
21860;SDS011;11095;48.066;8.540;2022-10-17T07:32:46;2.63;;;1.85;;
21860;SDS011;11095;48.066;8.540;2022-10-17T07:35:12;2.33;;;1.80;;
21860;SDS011;11095;48.066;8.540;2022-10-17T07:37:38;2.58;;;1.70;;
21860;SDS011;11095;48.066;8.540;2022-10-17T07:40:04;5.43;;;1.65;;
21860;SDS011;11095;48.066;8.540;2022-10-17T07:42:32;2.10;;;1.50;;
21860;SDS011;11095;48.066;8.540;2022-10-17T07:44:59;3.00;;;1.92;;
21860;SDS011;11095;48.066;8.540;2022-10-17T07:47:25;1.65;;;1.50;;
21860;SDS011;11095;48.066;8.540;2022-10-17T07:49:51;2.38;;;1.42;;
21860;SDS011;11095;48.066;8.540;2022-10-17T07:52:17;2.22;;;1.80;;
21860;SDS011;11095;48.066;8.540;2022-10-17T07:54:43;2.88;;;1.83;;
21860;SDS011;11095;48.066;8.540;2022-10-17T07:57:09;1.60;;;1.50;;
21860;SDS011;11095;48.066;8.540;2022-10-17T07:59:35;2.95;;;1.80;;
21860;SDS011;11095;48.066;8.540;2022-10-17T08:02:02;2.03;;;1.83;;
21860;SDS011;11095;48.066;8.540;2022-10-17T08:04:27;3.92;;;1.70;;
21860;SDS011;11095;48.066;8.540;2022-10-17T08:06:53;4.13;;;2.10;;
21860;SDS011;11095;48.066;8.540;2022-10-17T08:09:19;2.88;;;1.77;;
21860;SDS011;11095;48.066;8.540;2022-10-17T08:11:45;3.42;;;1.90;;
21860;SDS011;11095;48.066;8.540;2022-10-17T08:14:11;3.40;;;1.58;;
21860;SDS011;11095;48.066;8.540;2022-10-17T08:16:38;2.35;;;1.80;;
21860;SDS011;11095;48.066;8.540;2022-10-17T08:19:04;2.80;;;1.80;;
21860;SDS011;11095;48.066;8.540;2022-10-17T08:21:33;2.05;;;1.70;;
21860;SDS011;11095;48.066;8.540;2022-10-17T08:23:59;3.15;;;1.88;;
21860;SDS011;11095;48.066;8.540;2022-10-17T08:26:26;3.03;;;1.70;;
21860;SDS011;11095;48.066;8.540;2022-10-17T08:28:52;3.35;;;1.55;;
21860;SDS011;11095;48.066;8.540;2022-10-17T08:31:18;2.40;;;1.35;;
21860;SDS011;11095;48.066;8.540;2022-10-17T08:33:45;2.38;;;1.60;;
21860;SDS011;11095;48.066;8.540;2022-10-17T08:36:13;2.33;;;1.60;;
21860;SDS011;11095;48.066;8.540;2022-10-17T08:38:39;3.42;;;1.55;;
21860;SDS011;11095;48.066;8.540;2022-10-17T08:44:55;2.38;;;1.60;;
21860;SDS011;11095;48.066;8.540;2022-10-17T08:47:11;2.72;;;1.42;;
21860;SDS011;11095;48.066;8.540;2022-10-17T08:49:47;1.58;;;1.48;;
21860;SDS011;11095;48.066;8.540;2022-10-17T08:52:31;3.08;;;1.40;;
21860;SDS011;11095;48.066;8.540;2022-10-17T08:55:02;2.03;;;1.42;;
21860;SDS011;11095;48.066;8.540;2022-10-17T08:57:28;3.88;;;1.50;;
21860;SDS011;11095;48.066;8.540;2022-10-17T08:59:54;3.38;;;1.40;;
21860;SDS011;11095;48.066;8.540;2022-10-17T09:22:08;1.73;;;1.40;;
21860;SDS011;11095;48.066;8.540;2022-10-17T09:24:43;2.13;;;1.80;;
21860;SDS011;11095;48.066;8.540;2022-10-17T09:27:23;4.07;;;1.30;;
21860;SDS011;11095;48.066;8.540;2022-10-17T09:32:43;1.98;;;1.50;;
21860;SDS011;11095;48.066;8.540;2022-10-17T09:35:12;1.83;;;1.48;;
21860;SDS011;11095;48.066;8.540;2022-10-17T09:37:38;2.65;;;1.55;;
21860;SDS011;11095;48.066;8.540;2022-10-17T09:40:06;3.47;;;1.50;;
21860;SDS011;11095;48.066;8.540;2022-10-17T09:42:36;2.05;;;1.42;;
21860;SDS011;11095;48.066;8.540;2022-10-17T09:47:54;2.25;;;1.40;;
21860;SDS011;11095;48.066;8.540;2022-10-17T09:50:32;4.45;;;1.50;;
21860;SDS011;11095;48.066;8.540;2022-10-17T09:53:02;3.58;;;1.40;;
21860;SDS011;11095;48.066;8.540;2022-10-17T09:55:39;2.63;;;1.70;;
21860;SDS011;11095;48.066;8.540;2022-10-17T09:58:07;2.50;;;1.42;;
21860;SDS011;11095;48.066;8.540;2022-10-17T10:00:36;2.13;;;1.65;;
21860;SDS011;11095;48.066;8.540;2022-10-17T10:06:32;3.33;;;1.90;;
21860;SDS011;11095;48.066;8.540;2022-10-17T10:08:48;1.90;;;1.65;;
21860;SDS011;11095;48.066;8.540;2022-10-17T10:11:16;3.55;;;1.70;;
21860;SDS011;11095;48.066;8.540;2022-10-17T10:13:43;3.30;;;2.00;;
21860;SDS011;11095;48.066;8.540;2022-10-17T10:16:16;3.47;;;1.70;;
21860;SDS011;11095;48.066;8.540;2022-10-17T10:18:55;3.00;;;1.70;;
21860;SDS011;11095;48.066;8.540;2022-10-17T10:21:22;5.55;;;1.90;;
21860;SDS011;11095;48.066;8.540;2022-10-17T10:26:48;3.17;;;1.70;;
21860;SDS011;11095;48.066;8.540;2022-10-17T10:31:53;6.63;;;1.70;;
21860;SDS011;11095;48.066;8.540;2022-10-17T10:34:27;4.82;;;1.75;;
21860;SDS011;11095;48.066;8.540;2022-10-17T10:36:56;2.75;;;1.73;;
21860;SDS011;11095;48.066;8.540;2022-10-17T10:42:05;2.90;;;1.60;;
21860;SDS011;11095;48.066;8.540;2022-10-17T10:44:41;3.95;;;1.60;;
21860;SDS011;11095;48.066;8.540;2022-10-17T10:47:08;2.67;;;1.50;;
21860;SDS011;11095;48.066;8.540;2022-10-17T10:49:41;3.83;;;1.70;;
21860;SDS011;11095;48.066;8.540;2022-10-17T10:52:09;2.35;;;1.60;;
21860;SDS011;11095;48.066;8.540;2022-10-17T10:54:49;3.20;;;1.70;;
21860;SDS011;11095;48.066;8.540;2022-10-17T10:57:22;1.70;;;1.52;;
21860;SDS011;11095;48.066;8.540;2022-10-17T11:10:40;2.15;;;1.88;;
21860;SDS011;11095;48.066;8.540;2022-10-17T11:13:24;3.05;;;1.60;;
21860;SDS011;11095;48.066;8.540;2022-10-17T11:18:32;2.35;;;1.70;;
21860;SDS011;11095;48.066;8.540;2022-10-17T11:21:15;2.63;;;1.70;;
21860;SDS011;11095;48.066;8.540;2022-10-17T11:23:52;2.22;;;1.75;;
21860;SDS011;11095;48.066;8.540;2022-10-17T11:26:28;2.55;;;1.50;;
21860;SDS011;11095;48.066;8.540;2022-10-17T11:28:57;2.42;;;1.50;;
21860;SDS011;11095;48.066;8.540;2022-10-17T11:31:29;2.90;;;1.50;;
21860;SDS011;11095;48.066;8.540;2022-10-17T11:36:58;2.33;;;1.60;;
21860;SDS011;11095;48.066;8.540;2022-10-17T11:39:31;1.90;;;1.50;;
21860;SDS011;11095;48.066;8.540;2022-10-17T11:44:37;1.85;;;1.42;;
21860;SDS011;11095;48.066;8.540;2022-10-17T11:50:02;2.72;;;1.70;;
21860;SDS011;11095;48.066;8.540;2022-10-17T11:52:54;2.17;;;1.52;;
21860;SDS011;11095;48.066;8.540;2022-10-17T11:55:25;4.20;;;1.52;;
21860;SDS011;11095;48.066;8.540;2022-10-17T12:00:26;2.17;;;1.45;;
21860;SDS011;11095;48.066;8.540;2022-10-17T12:03:19;1.55;;;1.30;;
21860;SDS011;11095;48.066;8.540;2022-10-17T12:17:26;2.47;;;1.38;;
21860;SDS011;11095;48.066;8.540;2022-10-17T12:20:36;1.88;;;1.30;;
21860;SDS011;11095;48.066;8.540;2022-10-17T12:23:15;1.80;;;1.40;;
21860;SDS011;11095;48.066;8.540;2022-10-17T12:25:48;2.42;;;1.70;;
21860;SDS011;11095;48.066;8.540;2022-10-17T12:31:02;3.00;;;1.60;;
21860;SDS011;11095;48.066;8.540;2022-10-17T12:33:37;2.95;;;1.40;;
21860;SDS011;11095;48.066;8.540;2022-10-17T12:55:12;3.20;;;1.60;;
21860;SDS011;11095;48.066;8.540;2022-10-17T13:00:04;2.08;;;1.33;;
21860;SDS011;11095;48.066;8.540;2022-10-17T13:02:40;3.05;;;1.50;;
21860;SDS011;11095;48.066;8.540;2022-10-17T13:05:07;2.80;;;1.50;;
21860;SDS011;11095;48.066;8.540;2022-10-17T13:07:39;4.60;;;1.30;;
21860;SDS011;11095;48.066;8.540;2022-10-17T13:10:17;3.47;;;1.50;;
21860;SDS011;11095;48.066;8.540;2022-10-17T13:12:48;4.75;;;1.38;;
21860;SDS011;11095;48.066;8.540;2022-10-17T13:15:18;2.17;;;1.10;;
21860;SDS011;11095;48.066;8.540;2022-10-17T13:17:44;3.92;;;1.20;;
21860;SDS011;11095;48.066;8.540;2022-10-17T13:20:19;1.90;;;1.30;;
21860;SDS011;11095;48.066;8.540;2022-10-17T13:22:49;4.35;;;1.17;;
21860;SDS011;11095;48.066;8.540;2022-10-17T13:25:16;3.97;;;1.30;;
21860;SDS011;11095;48.066;8.540;2022-10-17T13:27:43;4.43;;;1.25;;
21860;SDS011;11095;48.066;8.540;2022-10-17T13:30:29;5.78;;;1.15;;
21860;SDS011;11095;48.066;8.540;2022-10-17T13:32:56;3.95;;;1.20;;
21860;SDS011;11095;48.066;8.540;2022-10-17T13:35:24;5.28;;;1.38;;
21860;SDS011;11095;48.066;8.540;2022-10-17T13:37:55;2.38;;;1.30;;
21860;SDS011;11095;48.066;8.540;2022-10-17T13:40:24;3.22;;;1.20;;
21860;SDS011;11095;48.066;8.540;2022-10-17T13:42:51;6.85;;;1.48;;
21860;SDS011;11095;48.066;8.540;2022-10-17T13:45:22;7.20;;;1.08;;
21860;SDS011;11095;48.066;8.540;2022-10-17T13:48:04;2.95;;;0.90;;
21860;SDS011;11095;48.066;8.540;2022-10-17T13:50:40;2.20;;;0.90;;
21860;SDS011;11095;48.066;8.540;2022-10-17T13:55:49;3.30;;;1.23;;
21860;SDS011;11095;48.066;8.540;2022-10-17T13:58:23;1.17;;;0.82;;
21860;SDS011;11095;48.066;8.540;2022-10-17T14:00:49;1.92;;;0.80;;
21860;SDS011;11095;48.066;8.540;2022-10-17T14:03:17;3.50;;;0.98;;
21860;SDS011;11095;48.066;8.540;2022-10-17T14:08:51;1.02;;;0.73;;
21860;SDS011;11095;48.066;8.540;2022-10-17T14:11:24;2.10;;;0.70;;
21860;SDS011;11095;48.066;8.540;2022-10-17T14:14:19;0.80;;;0.68;;
21860;SDS011;11095;48.066;8.540;2022-10-17T14:16:47;2.45;;;0.70;;
21860;SDS011;11095;48.066;8.540;2022-10-17T14:19:23;2.85;;;1.00;;
21860;SDS011;11095;48.066;8.540;2022-10-17T14:21:54;1.13;;;0.90;;
21860;SDS011;11095;48.066;8.540;2022-10-17T14:24:38;2.33;;;0.75;;
21860;SDS011;11095;48.066;8.540;2022-10-17T14:27:52;1.75;;;0.80;;
21860;SDS011;11095;48.066;8.540;2022-10-17T14:30:29;1.73;;;0.90;;
21860;SDS011;11095;48.066;8.540;2022-10-17T14:32:50;3.72;;;0.90;;
21860;SDS011;11095;48.066;8.540;2022-10-17T14:35:25;1.52;;;0.90;;
21860;SDS011;11095;48.066;8.540;2022-10-17T14:37:51;3.03;;;0.90;;
21860;SDS011;11095;48.066;8.540;2022-10-17T14:40:25;1.77;;;0.80;;
21860;SDS011;11095;48.066;8.540;2022-10-17T14:42:52;2.67;;;0.88;;
21860;SDS011;11095;48.066;8.540;2022-10-17T14:45:25;4.32;;;1.02;;
21860;SDS011;11095;48.066;8.540;2022-10-17T14:47:54;1.48;;;0.85;;
21860;SDS011;11095;48.066;8.540;2022-10-17T14:50:25;1.70;;;0.90;;
21860;SDS011;11095;48.066;8.540;2022-10-17T14:55:32;1.55;;;0.98;;
21860;SDS011;11095;48.066;8.540;2022-10-17T14:57:59;3.47;;;1.00;;
21860;SDS011;11095;48.066;8.540;2022-10-17T15:00:26;2.10;;;1.00;;
21860;SDS011;11095;48.066;8.540;2022-10-17T15:02:52;2.38;;;0.88;;
21860;SDS011;11095;48.066;8.540;2022-10-17T15:05:19;2.60;;;0.90;;
21860;SDS011;11095;48.066;8.540;2022-10-17T15:07:47;2.72;;;1.00;;
21860;SDS011;11095;48.066;8.540;2022-10-17T15:10:21;2.10;;;1.10;;
21860;SDS011;11095;48.066;8.540;2022-10-17T15:12:57;2.78;;;1.13;;
21860;SDS011;11095;48.066;8.540;2022-10-17T15:15:24;5.53;;;1.10;;
21860;SDS011;11095;48.066;8.540;2022-10-17T15:17:51;1.45;;;1.00;;
21860;SDS011;11095;48.066;8.540;2022-10-17T15:20:17;1.63;;;1.00;;
21860;SDS011;11095;48.066;8.540;2022-10-17T15:22:44;1.80;;;1.10;;
21860;SDS011;11095;48.066;8.540;2022-10-17T15:25:09;2.72;;;1.30;;
21860;SDS011;11095;48.066;8.540;2022-10-17T15:27:35;1.88;;;1.13;;
21860;SDS011;11095;48.066;8.540;2022-10-17T15:30:01;2.05;;;1.40;;
21860;SDS011;11095;48.066;8.540;2022-10-17T15:32:26;2.75;;;1.30;;
21860;SDS011;11095;48.066;8.540;2022-10-17T15:34:52;2.67;;;1.20;;
21860;SDS011;11095;48.066;8.540;2022-10-17T15:37:22;2.75;;;1.00;;
21860;SDS011;11095;48.066;8.540;2022-10-17T15:39:50;2.72;;;1.10;;
21860;SDS011;11095;48.066;8.540;2022-10-17T15:42:18;1.67;;;0.98;;
21860;SDS011;11095;48.066;8.540;2022-10-17T15:44:50;2.83;;;1.00;;
21860;SDS011;11095;48.066;8.540;2022-10-17T15:47:26;2.17;;;1.17;;
21860;SDS011;11095;48.066;8.540;2022-10-17T15:49:54;1.35;;;0.98;;
21860;SDS011;11095;48.066;8.540;2022-10-17T15:52:21;2.17;;;1.00;;
21860;SDS011;11095;48.066;8.540;2022-10-17T15:54:48;1.80;;;1.30;;
21860;SDS011;11095;48.066;8.540;2022-10-17T15:57:18;3.50;;;1.50;;
21860;SDS011;11095;48.066;8.540;2022-10-17T15:59:50;2.65;;;1.30;;
21860;SDS011;11095;48.066;8.540;2022-10-17T16:02:17;1.98;;;1.40;;
21860;SDS011;11095;48.066;8.540;2022-10-17T16:04:44;1.88;;;1.33;;
21860;SDS011;11095;48.066;8.540;2022-10-17T16:07:11;2.88;;;2.38;;
21860;SDS011;11095;48.066;8.540;2022-10-17T16:09:36;3.25;;;1.80;;
21860;SDS011;11095;48.066;8.540;2022-10-17T16:12:03;4.85;;;1.60;;
21860;SDS011;11095;48.066;8.540;2022-10-17T16:14:30;1.95;;;1.35;;
21860;SDS011;11095;48.066;8.540;2022-10-17T16:16:59;1.92;;;1.30;;
21860;SDS011;11095;48.066;8.540;2022-10-17T16:19:25;2.33;;;1.30;;
21860;SDS011;11095;48.066;8.540;2022-10-17T16:21:54;2.78;;;1.45;;
21860;SDS011;11095;48.066;8.540;2022-10-17T16:24:23;2.90;;;1.48;;
21860;SDS011;11095;48.066;8.540;2022-10-17T16:26:49;2.13;;;1.55;;
21860;SDS011;11095;48.066;8.540;2022-10-17T16:29:15;1.50;;;1.30;;
21860;SDS011;11095;48.066;8.540;2022-10-17T16:31:43;1.98;;;1.50;;
21860;SDS011;11095;48.066;8.540;2022-10-17T16:34:12;2.60;;;1.77;;
21860;SDS011;11095;48.066;8.540;2022-10-17T16:36:39;2.28;;;1.67;;
21860;SDS011;11095;48.066;8.540;2022-10-17T16:39:05;2.00;;;1.50;;
21860;SDS011;11095;48.066;8.540;2022-10-17T16:41:33;2.20;;;1.48;;
21860;SDS011;11095;48.066;8.540;2022-10-17T16:44:01;3.13;;;2.08;;
21860;SDS011;11095;48.066;8.540;2022-10-17T16:46:29;3.20;;;2.67;;
21860;SDS011;11095;48.066;8.540;2022-10-17T16:48:56;4.10;;;2.63;;
21860;SDS011;11095;48.066;8.540;2022-10-17T16:51:22;3.33;;;2.78;;
21860;SDS011;11095;48.066;8.540;2022-10-17T16:53:50;4.30;;;3.15;;
21860;SDS011;11095;48.066;8.540;2022-10-17T16:58:45;4.47;;;2.70;;
21860;SDS011;11095;48.066;8.540;2022-10-17T17:01:14;7.82;;;4.13;;
21860;SDS011;11095;48.066;8.540;2022-10-17T17:03:47;12.73;;;6.88;;
21860;SDS011;11095;48.066;8.540;2022-10-17T17:06:14;10.50;;;5.90;;
21860;SDS011;11095;48.066;8.540;2022-10-17T17:08:44;8.70;;;4.68;;
21860;SDS011;11095;48.066;8.540;2022-10-17T17:11:12;8.70;;;4.47;;
21860;SDS011;11095;48.066;8.540;2022-10-17T17:13:39;14.68;;;7.20;;
21860;SDS011;11095;48.066;8.540;2022-10-17T17:16:06;11.85;;;6.10;;
21860;SDS011;11095;48.066;8.540;2022-10-17T17:18:40;9.48;;;5.95;;
21860;SDS011;11095;48.066;8.540;2022-10-17T17:21:07;7.80;;;4.93;;
21860;SDS011;11095;48.066;8.540;2022-10-17T17:23:35;8.02;;;4.80;;